Time,TemperatureF,DewpointF,PressureIn,WindDirection,WindDirectionDegrees,WindSpeedMPH,WindSpeedGustMPH,Humidity,HourlyPrecipIn,Conditions,Clouds,dailyrainin,SoftwareType,DateUTC
2013-12-05 00:14:00,9.3,4.0,30.41,SSW,206,0.0,-999.0,79,-99.99,,,0.00,weatherlink.com 1.10,2013-12-05 07:14:00,
2013-12-05 00:29:00,9.0,3.0,30.42,SSW,206,0.0,-999.0,78,-99.99,,,0.00,weatherlink.com 1.10,2013-12-05 07:29:00,
2013-12-05 00:44:00,8.4,3.0,30.41,SSW,204,0.0,-999.0,80,-99.99,,,0.00,weatherlink.com 1.10,2013-12-05 07:44:00,
2013-12-05 00:59:00,8.3,3.0,30.40,SSW,204,0.0,-999.0,80,-99.99,,,0.00,weatherlink.com 1.10,2013-12-05 07:59:00,
2013-12-05 01:14:00,8.3,3.0,30.42,SSW,204,0.0,-999.0,79,-99.99,,,0.00,weatherlink.com 1.10,2013-12-05 08:14:00,
2013-12-05 01:29:00,8.3,3.0,30.42,SSW,206,0.0,-999.0,79,-99.99,,,0.00,weatherlink.com 1.10,2013-12-05 08:29:00,
2013-12-05 01:44:00,7.7,3.0,30.42,SSW,206,0.0,-999.0,80,-99.99,,,0.00,weatherlink.com 1.10,2013-12-05 08:44:00,
2013-12-05 01:59:00,7.7,3.0,30.43,SSW,206,0.0,-999.0,80,-99.99,,,0.00,weatherlink.com 1.10,2013-12-05 08:59:00,
2013-12-05 02:14:00,7.4,3.0,30.42,SSW,204,0.0,-999.0,81,-99.99,,,0.00,weatherlink.com 1.10,2013-12-05 09:14:00,
2013-12-05 02:29:00,7.2,3.0,30.43,SSW,206,0.0,-999.0,81,-99.99,,,0.00,weatherlink.com 1.10,2013-12-05 09:29:00,
2013-12-05 02:44:00,7.0,2.0,30.43,SSW,204,0.0,-999.0,81,-99.99,,,0.00,weatherlink.com 1.10,2013-12-05 09:44:00,
2013-12-05 03:00:00,6.9,2.0,30.42,SSW,204,0.0,-999.0,80,-99.99,,,0.00,weatherlink.com 1.10,2013-12-05 10:00:00,
2013-12-05 03:15:00,6.7,2.0,30.44,SSW,204,0.0,-999.0,80,-99.99,,,0.00,weatherlink.com 1.10,2013-12-05 10:15:00,
2013-12-05 03:30:00,6.5,2.0,30.44,SSW,204,0.0,-999.0,80,-99.99,,,0.00,weatherlink.com 1.10,2013-12-05 10:30:00,
2013-12-05 03:45:00,6.3,2.0,30.44,SSW,204,0.0,-999.0,81,-99.99,,,0.00,weatherlink.com 1.10,2013-12-05 10:45:00,
2013-12-05 04:00:00,6.0,1.0,30.43,SSW,204,0.0,-999.0,81,-99.99,,,0.00,weatherlink.com 1.10,2013-12-05 11:00:00,
2013-12-05 04:15:00,5.8,1.0,30.47,SSW,204,0.0,-999.0,81,-99.99,,,0.00,weatherlink.com 1.10,2013-12-05 11:15:00,
2013-12-05 04:30:00,5.4,1.0,30.47,SSW,204,0.0,-999.0,81,-99.99,,,0.00,weatherlink.com 1.10,2013-12-05 11:30:00,
2013-12-05 04:45:00,5.0,0.0,30.48,SSW,206,0.0,-999.0,81,-99.99,,,0.00,weatherlink.com 1.10,2013-12-05 11:45:00,
2013-12-05 05:00:00,5.6,1.0,30.48,SSW,204,0.0,-999.0,81,-99.99,,,0.00,weatherlink.com 1.10,2013-12-05 12:00:00,
2013-12-05 05:15:00,6.0,1.0,30.49,SSW,204,0.0,-999.0,79,-99.99,,,0.00,weatherlink.com 1.10,2013-12-05 12:15:00,
2013-12-05 05:30:00,5.2,0.0,30.50,SSW,204,0.0,-999.0,80,-99.99,,,0.00,weatherlink.com 1.10,2013-12-05 12:30:00,
2013-12-05 05:45:00,4.8,0.0,30.52,SSW,204,0.0,-999.0,81,-99.99,,,0.00,weatherlink.com 1.10,2013-12-05 12:45:00,
2013-12-05 06:00:00,4.3,0.0,30.52,SSW,204,0.0,-999.0,81,-99.99,,,0.00,weatherlink.com 1.10,2013-12-05 13:00:00,
2013-12-05 06:15:00,4.1,0.0,30.56,SSW,204,0.0,-999.0,82,-99.99,,,0.00,weatherlink.com 1.10,2013-12-05 13:15:00,
2013-12-05 06:30:00,3.9,0.0,30.56,SSW,204,0.0,-999.0,82,-99.99,,,0.00,weatherlink.com 1.10,2013-12-05 13:30:00,
2013-12-05 06:44:00,4.1,0.0,30.56,SSW,204,0.0,-999.0,82,-99.99,,,0.00,weatherlink.com 1.10,2013-12-05 13:44:00,
2013-12-05 06:59:00,4.3,0.0,30.57,SSW,204,0.0,-999.0,81,-99.99,,,0.00,weatherlink.com 1.10,2013-12-05 13:59:00,
2013-12-05 07:14:00,4.3,0.0,30.57,SSW,204,0.0,-999.0,81,-99.99,,,0.00,weatherlink.com 1.10,2013-12-05 14:14:00,
2013-12-05 07:29:00,4.7,0.0,30.55,SSW,204,0.0,-999.0,81,-99.99,,,0.00,weatherlink.com 1.10,2013-12-05 14:29:00,
2013-12-05 07:44:00,5.2,1.0,30.56,SSW,204,0.0,-999.0,81,-99.99,,,0.00,weatherlink.com 1.10,2013-12-05 14:44:00,
2013-12-05 07:59:00,6.1,1.0,30.56,SSW,206,0.0,-999.0,80,-99.99,,,0.00,weatherlink.com 1.10,2013-12-05 14:59:00,
2013-12-05 08:14:00,7.6,3.0,30.58,SSW,206,0.0,-999.0,81,-99.99,,,0.00,weatherlink.com 1.10,2013-12-05 15:14:00,
2013-12-05 08:29:00,8.1,2.0,30.57,SSW,206,0.0,-999.0,76,-99.99,,,0.00,weatherlink.com 1.10,2013-12-05 15:29:00,
2013-12-05 08:44:00,9.5,2.0,30.55,SSW,206,0.0,-999.0,72,-99.99,,,0.00,weatherlink.com 1.10,2013-12-05 15:44:00,
2013-12-05 08:59:00,10.4,3.0,30.55,SSW,206,0.0,-999.0,72,-99.99,,,0.00,weatherlink.com 1.10,2013-12-05 15:59:00,
2013-12-05 09:14:00,11.9,3.0,30.55,SSW,206,0.0,-999.0,67,-99.99,,,0.00,weatherlink.com 1.10,2013-12-05 16:14:00,
2013-12-05 09:29:00,12.9,3.0,30.54,SSW,206,0.0,-999.0,66,-99.99,,,0.00,weatherlink.com 1.10,2013-12-05 16:29:00,
2013-12-05 09:44:00,18.0,5.0,30.48,SSW,200,1.0,-999.0,57,-99.99,,,0.00,weatherlink.com 1.10,2013-12-05 16:44:00,
2013-12-05 09:59:00,18.6,4.0,30.48,SSW,200,0.0,-999.0,54,-99.99,,,0.00,weatherlink.com 1.10,2013-12-05 16:59:00,
2013-12-05 10:14:00,18.9,3.0,30.46,SSW,197,1.0,-999.0,51,-99.99,,,0.00,weatherlink.com 1.10,2013-12-05 17:14:00,
2013-12-05 10:29:00,18.6,5.0,30.45,SSW,194,0.0,-999.0,56,-99.99,,,0.00,weatherlink.com 1.10,2013-12-05 17:29:00,
2013-12-05 10:45:00,21.8,8.0,30.43,SSW,194,0.0,-999.0,56,-99.99,,,0.00,weatherlink.com 1.10,2013-12-05 17:45:00,
2013-12-05 11:00:00,20.5,3.0,30.41,SSW,193,2.0,-999.0,46,-99.99,,,0.01,weatherlink.com 1.10,2013-12-05 18:00:00,
2013-12-05 11:15:00,21.8,6.0,30.43,SSE,160,0.0,-999.0,51,-99.99,,,0.02,weatherlink.com 1.10,2013-12-05 18:15:00,
2013-12-05 11:30:00,23.5,8.0,30.41,SSE,156,0.0,-999.0,52,-99.99,,,0.03,weatherlink.com 1.10,2013-12-05 18:30:00,
2013-12-05 11:45:00,19.9,6.0,30.39,South,186,0.0,-999.0,55,-99.99,,,0.03,weatherlink.com 1.10,2013-12-05 18:45:00,
2013-12-05 12:00:00,20.8,7.0,30.40,SE,141,4.0,-999.0,56,-99.99,,,0.03,weatherlink.com 1.10,2013-12-05 19:00:00,
2013-12-05 12:15:00,20.0,6.0,30.41,SW,214,1.0,-999.0,55,-99.99,,,0.03,weatherlink.com 1.10,2013-12-05 19:15:00,
2013-12-05 12:30:00,22.4,7.0,30.40,SE,139,0.0,-999.0,52,-99.99,,,0.04,weatherlink.com 1.10,2013-12-05 19:30:00,
2013-12-05 12:44:00,23.9,8.0,30.36,SW,228,0.0,-999.0,51,-99.99,,,0.04,weatherlink.com 1.10,2013-12-05 19:44:00,
2013-12-05 12:59:00,20.0,8.0,30.37,SW,228,3.0,-999.0,59,-99.99,,,0.04,weatherlink.com 1.10,2013-12-05 19:59:00,
2013-12-05 13:14:00,20.5,10.0,30.39,South,187,1.0,-999.0,64,-99.99,,,0.04,weatherlink.com 1.10,2013-12-05 20:14:00,
2013-12-05 13:29:00,22.4,9.0,30.36,WSW,245,2.0,-999.0,57,-99.99,,,0.04,weatherlink.com 1.10,2013-12-05 20:29:00,
2013-12-05 13:44:00,22.5,8.0,30.38,South,187,1.0,-999.0,55,-99.99,,,0.04,weatherlink.com 1.10,2013-12-05 20:44:00,
2013-12-05 13:59:00,21.3,6.0,30.36,SW,234,1.0,-999.0,52,-99.99,,,0.04,weatherlink.com 1.10,2013-12-05 20:59:00,
2013-12-05 14:14:00,21.9,7.0,30.37,South,187,1.0,-999.0,52,-99.99,,,0.04,weatherlink.com 1.10,2013-12-05 21:14:00,
2013-12-05 14:29:00,21.3,6.0,30.38,South,184,7.0,-999.0,52,-99.99,,,0.04,weatherlink.com 1.10,2013-12-05 21:29:00,
2013-12-05 14:44:00,19.4,7.0,30.40,SSW,193,0.0,-999.0,60,-99.99,,,0.04,weatherlink.com 1.10,2013-12-05 21:44:00,
2013-12-05 14:59:00,19.1,8.0,30.41,SSE,165,11.0,-999.0,61,-99.99,,,0.04,weatherlink.com 1.10,2013-12-05 21:59:00,
2013-12-05 15:14:00,18.6,9.0,30.42,SSW,204,1.0,-999.0,65,-99.99,,,0.04,weatherlink.com 1.10,2013-12-05 22:14:00,
2013-12-05 15:29:00,18.8,9.0,30.43,SSW,194,0.0,-999.0,66,-99.99,,,0.04,weatherlink.com 1.10,2013-12-05 22:29:00,
2013-12-05 15:44:00,19.1,10.0,30.43,South,190,2.0,-999.0,67,-99.99,,,0.04,weatherlink.com 1.10,2013-12-05 22:44:00,
2013-12-05 15:59:00,18.4,9.0,30.43,SW,221,1.0,-999.0,66,-99.99,,,0.04,weatherlink.com 1.10,2013-12-05 22:59:00,
2013-12-05 16:15:00,18.1,9.0,30.46,SW,234,0.0,-999.0,68,-99.99,,,0.04,weatherlink.com 1.10,2013-12-05 23:15:00,
2013-12-05 16:30:00,17.8,9.0,30.46,WSW,237,2.0,-999.0,67,-99.99,,,0.04,weatherlink.com 1.10,2013-12-05 23:30:00,
2013-12-05 16:45:00,17.2,8.0,30.45,SSW,201,0.0,-999.0,66,-99.99,,,0.04,weatherlink.com 1.10,2013-12-05 23:45:00,
2013-12-05 16:59:00,16.9,7.0,30.46,SSW,194,0.0,-999.0,65,-99.99,,,0.04,weatherlink.com 1.10,2013-12-05 23:59:00,
2013-12-05 17:14:00,15.9,6.0,30.48,SSW,194,0.0,-999.0,66,-99.99,,,0.04,weatherlink.com 1.10,2013-12-06 00:14:00,
2013-12-05 17:29:00,15.1,5.0,30.49,SSW,194,0.0,-999.0,65,-99.99,,,0.04,weatherlink.com 1.10,2013-12-06 00:29:00,
2013-12-05 17:44:00,14.8,5.0,30.49,SSW,194,0.0,-999.0,64,-99.99,,,0.04,weatherlink.com 1.10,2013-12-06 00:44:00,
2013-12-05 17:59:00,14.8,4.0,30.50,SSW,194,0.0,-999.0,62,-99.99,,,0.04,weatherlink.com 1.10,2013-12-06 00:59:00,
2013-12-05 18:14:00,13.5,4.0,30.52,SSW,194,0.0,-999.0,67,-99.99,,,0.04,weatherlink.com 1.10,2013-12-06 01:14:00,
2013-12-05 18:29:00,12.9,5.0,30.55,SSW,194,0.0,-999.0,70,-99.99,,,0.04,weatherlink.com 1.10,2013-12-06 01:29:00,
2013-12-05 18:44:00,12.6,5.0,30.55,SSW,194,0.0,-999.0,71,-99.99,,,0.04,weatherlink.com 1.10,2013-12-06 01:44:00,
2013-12-05 18:59:00,12.6,5.0,30.55,SSW,194,0.0,-999.0,72,-99.99,,,0.04,weatherlink.com 1.10,2013-12-06 01:59:00,
2013-12-05 19:14:00,12.6,5.0,30.53,SSW,194,0.0,-999.0,72,-99.99,,,0.04,weatherlink.com 1.10,2013-12-06 02:14:00,
2013-12-05 19:29:00,11.9,5.0,30.54,SSW,194,0.0,-999.0,73,-99.99,,,0.04,weatherlink.com 1.10,2013-12-06 02:29:00,
2013-12-05 19:44:00,11.6,5.0,30.54,SSW,194,0.0,-999.0,74,-99.99,,,0.04,weatherlink.com 1.10,2013-12-06 02:44:00,
2013-12-05 19:59:00,11.2,5.0,30.56,SSW,194,0.0,-999.0,76,-99.99,,,0.04,weatherlink.com 1.10,2013-12-06 02:59:00,
2013-12-05 20:14:00,11.4,6.0,30.53,SSW,194,0.0,-999.0,78,-99.99,,,0.04,weatherlink.com 1.10,2013-12-06 03:14:00,
2013-12-05 20:29:00,10.7,5.0,30.53,SSW,194,0.0,-999.0,79,-99.99,,,0.04,weatherlink.com 1.10,2013-12-06 03:29:00,
2013-12-05 20:44:00,10.2,5.0,30.53,SSW,194,0.0,-999.0,80,-99.99,,,0.04,weatherlink.com 1.10,2013-12-06 03:44:00,
2013-12-05 20:59:00,10.0,6.0,30.54,SSW,194,0.0,-999.0,82,-99.99,,,0.04,weatherlink.com 1.10,2013-12-06 03:59:00,
2013-12-05 21:14:00,10.2,6.0,30.46,SSW,194,0.0,-999.0,83,-99.99,,,0.04,weatherlink.com 1.10,2013-12-06 04:14:00,
2013-12-05 21:29:00,10.7,7.0,30.47,SSW,194,0.0,-999.0,83,-99.99,,,0.04,weatherlink.com 1.10,2013-12-06 04:29:00,
2013-12-05 21:44:00,10.7,7.0,30.47,SSW,194,0.0,-999.0,83,-99.99,,,0.04,weatherlink.com 1.10,2013-12-06 04:44:00,
2013-12-05 21:59:00,10.5,6.0,30.48,SSW,194,0.0,-999.0,83,-99.99,,,0.04,weatherlink.com 1.10,2013-12-06 04:59:00,
2013-12-05 22:14:00,10.7,7.0,30.42,SSW,194,0.0,-999.0,83,-99.99,,,0.04,weatherlink.com 1.10,2013-12-06 05:14:00,
2013-12-05 22:29:00,10.5,6.0,30.43,SSW,194,0.0,-999.0,83,-99.99,,,0.04,weatherlink.com 1.10,2013-12-06 05:29:00,
2013-12-05 22:45:00,9.7,6.0,30.45,SSW,194,0.0,-999.0,83,-99.99,,,0.04,weatherlink.com 1.10,2013-12-06 05:45:00,
2013-12-05 23:00:00,9.0,5.0,30.46,SSW,194,0.0,-999.0,83,-99.99,,,0.04,weatherlink.com 1.10,2013-12-06 06:00:00,
2013-12-05 23:15:00,9.5,5.0,30.48,SSW,194,0.0,-999.0,80,-99.99,,,0.04,weatherlink.com 1.10,2013-12-06 06:15:00,
2013-12-05 23:30:00,9.0,5.0,30.48,SSW,194,0.0,-999.0,82,-99.99,,,0.04,weatherlink.com 1.10,2013-12-06 06:30:00,
2013-12-05 23:45:00,9.2,5.0,30.48,SSW,194,0.0,-999.0,83,-99.99,,,0.04,weatherlink.com 1.10,2013-12-06 06:45:00,